createdAt,value
2022-08-10T00:00:33.329Z,23.30
2022-08-10T00:02:36.438Z,22.59
2022-08-10T00:04:39.330Z,23.26
2022-08-10T00:06:42.079Z,23.01
2022-08-10T00:08:45.153Z,23.14
2022-08-10T00:10:48.007Z,20.36
2022-08-10T00:12:54.553Z,23.20
2022-08-10T00:14:58.970Z,23.21
2022-08-10T00:17:01.775Z,22.89
2022-08-10T00:19:04.519Z,22.85
2022-08-10T00:21:09.675Z,22.62
2022-08-10T00:23:12.566Z,22.76
2022-08-10T00:25:16.351Z,22.59
2022-08-10T00:27:52.401Z,22.83
2022-08-10T00:29:43.208Z,23.00
2022-08-10T00:31:55.957Z,22.97
2022-08-10T00:34:02.425Z,22.70
2022-08-10T00:36:05.606Z,22.71
2022-08-10T00:38:08.458Z,22.74
2022-08-10T00:40:12.846Z,22.78
2022-08-10T00:42:16.720Z,22.82
2022-08-10T00:44:19.501Z,22.50
2022-08-10T00:46:23.757Z,22.32
2022-08-10T00:48:28.163Z,22.45
2022-08-10T00:50:31.546Z,22.63
2022-08-10T00:52:35.690Z,22.69
2022-08-10T00:54:39.284Z,22.47
2022-08-10T00:57:15.649Z,22.65
2022-08-10T00:59:04.872Z,22.58
2022-08-10T01:01:10.934Z,22.50
2022-08-10T01:04:36.311Z,21.72
2022-08-10T01:06:02.581Z,22.49
2022-08-10T01:08:22.106Z,22.32
2022-08-10T01:10:34.940Z,22.16
2022-08-10T01:12:47.448Z,22.23
2022-08-10T01:14:56.928Z,21.79
2022-08-10T01:17:04.381Z,22.23
2022-08-10T01:19:24.713Z,22.17
2022-08-10T01:22:04.416Z,22.55
2022-08-10T01:24:28.214Z,22.65
2022-08-10T01:26:55.434Z,22.51
2022-08-10T01:29:17.796Z,22.59
2022-08-10T01:31:31.402Z,22.42
2022-08-10T01:34:01.951Z,22.04
2022-08-10T01:36:06.402Z,22.38
2022-08-10T01:38:14.775Z,22.45
2022-08-10T01:40:25.058Z,22.44
2022-08-10T01:42:33.902Z,21.83
2022-08-10T01:44:40.712Z,21.95
2022-08-10T01:46:53.034Z,22.17
2022-08-10T01:49:01.925Z,22.17
2022-08-10T01:51:12.123Z,22.25
2022-08-10T01:53:21.381Z,22.29
2022-08-10T01:55:27.021Z,21.93
2022-08-10T01:57:32.820Z,22.09
2022-08-10T01:59:38.169Z,22.07
2022-08-10T02:01:47.784Z,22.09
2022-08-10T02:04:05.019Z,22.30
2022-08-10T02:06:11.283Z,22.33
2022-08-10T02:08:17.498Z,22.36
2022-08-10T02:10:23.618Z,22.17
2022-08-10T02:12:31.327Z,22.18
2022-08-10T02:14:38.334Z,22.19
2022-08-10T02:16:45.870Z,22.35
2022-08-10T02:18:51.196Z,22.09
2022-08-10T02:20:55.505Z,22.19
2022-08-10T02:23:03.942Z,22.26
2022-08-10T02:25:08.985Z,22.28
2022-08-10T02:27:13.579Z,22.32
2022-08-10T02:29:18.399Z,22.19
2022-08-10T02:31:25.017Z,21.91
2022-08-10T02:33:33.299Z,22.03
2022-08-10T02:35:55.002Z,21.73
2022-08-10T02:38:03.010Z,21.29
2022-08-10T02:40:06.796Z,21.57
2022-08-10T02:45:23.151Z,21.37
2022-08-10T02:45:27.647Z,21.73
2022-08-10T02:47:29.350Z,21.56
2022-08-10T02:49:56.736Z,21.69
2022-08-10T02:52:06.290Z,21.93
2022-08-10T02:54:18.580Z,21.80
2022-08-10T02:56:25.795Z,21.86
2022-08-10T02:58:32.917Z,21.03
2022-08-10T03:00:41.981Z,21.91
2022-08-10T03:02:47.275Z,21.87
2022-08-10T03:04:58.115Z,21.05
2022-08-10T03:07:05.772Z,21.76
2022-08-10T03:09:11.049Z,21.82
2022-08-10T03:12:36.254Z,21.94
2022-08-10T03:13:51.109Z,21.79
2022-08-10T03:16:04.785Z,21.31
2022-08-10T03:18:08.745Z,21.80
2022-08-10T03:20:36.738Z,21.67
2022-08-10T03:22:37.964Z,18.95
2022-08-10T03:24:42.423Z,21.48
2022-08-10T03:26:45.589Z,21.40
2022-08-10T03:28:49.594Z,21.56
2022-08-10T03:30:53.179Z,21.59
2022-08-10T03:32:57.629Z,21.50
2022-08-10T03:35:01.324Z,21.26
2022-08-10T03:37:06.078Z,21.50
2022-08-10T03:39:09.230Z,21.46
2022-08-10T03:41:16.551Z,21.59
2022-08-10T03:43:22.330Z,21.29
2022-08-10T03:45:26.811Z,21.40
2022-08-10T03:47:46.122Z,21.32
2022-08-10T03:49:50.043Z,20.93
2022-08-10T03:51:53.430Z,20.58
2022-08-10T03:54:05.524Z,20.31
2022-08-10T03:56:29.590Z,19.73
2022-08-10T03:58:33.257Z,19.48
2022-08-10T04:00:37.273Z,18.53
2022-08-10T04:02:44.422Z,19.67
2022-08-10T04:04:50.963Z,19.77
2022-08-10T04:06:55.687Z,19.59
2022-08-10T04:09:00.164Z,19.15
2022-08-10T04:11:02.955Z,19.02
2022-08-10T04:13:05.720Z,19.26
2022-08-10T04:15:09.571Z,19.02
2022-08-10T04:17:14.161Z,18.88
2022-08-10T04:19:19.227Z,19.30
2022-08-10T04:21:25.714Z,19.48
2022-08-10T04:23:31.964Z,20.16
2022-08-10T04:25:37.731Z,19.59
2022-08-10T04:27:40.910Z,18.74
2022-08-10T04:29:45.130Z,18.64
2022-08-10T04:31:49.923Z,18.35
2022-08-10T04:33:55.455Z,18.42
2022-08-10T04:35:59.159Z,17.90
2022-08-10T04:38:04.309Z,17.74
2022-08-10T04:40:25.448Z,17.79
2022-08-10T04:42:32.278Z,17.86
2022-08-10T04:44:35.610Z,17.33
2022-08-10T04:46:55.710Z,17.39
2022-08-10T04:49:01.595Z,17.53
2022-08-10T04:51:05.363Z,17.76
2022-08-10T04:53:08.226Z,17.17
2022-08-10T04:55:10.975Z,17.02
2022-08-10T04:57:13.951Z,17.40
2022-08-10T04:59:19.674Z,17.33
2022-08-10T05:01:24.908Z,17.47
2022-08-10T05:03:27.982Z,17.56
2022-08-10T05:05:30.756Z,17.64
2022-08-10T05:07:44.713Z,17.70
2022-08-10T05:10:02.276Z,17.51
2022-08-10T05:12:08.852Z,17.50
2022-08-10T05:14:11.645Z,15.27
2022-08-10T05:16:20.625Z,17.74
2022-08-10T05:18:35.434Z,17.84
2022-08-10T05:20:38.347Z,17.84
2022-08-10T05:22:42.994Z,17.79
2022-08-10T05:24:45.754Z,17.80
2022-08-10T05:27:00.432Z,17.78
2022-08-10T05:29:11.290Z,16.40
2022-08-10T05:31:22.415Z,17.95
2022-08-10T05:33:26.747Z,18.10
2022-08-10T05:35:55.431Z,17.52
2022-08-10T05:38:13.000Z,18.40
2022-08-10T05:40:17.163Z,18.41
2022-08-10T05:42:21.641Z,18.32
2022-08-10T05:44:26.144Z,18.58
2022-08-10T05:46:30.367Z,18.39
2022-08-10T05:48:57.853Z,18.70
2022-08-10T05:50:55.873Z,18.47
2022-08-10T05:53:02.554Z,18.90
2022-08-10T05:55:23.259Z,19.02
2022-08-10T05:57:25.976Z,19.06
2022-08-10T06:00:34.604Z,19.13
2022-08-10T06:02:41.136Z,19.12
2022-08-10T06:04:25.920Z,19.23
2022-08-10T06:06:33.892Z,19.28
2022-08-10T06:08:40.001Z,19.13
2022-08-10T06:12:27.008Z,18.65
2022-08-10T06:13:30.297Z,19.72
2022-08-10T06:15:52.067Z,19.82
2022-08-10T06:18:01.539Z,19.82
2022-08-10T06:20:06.422Z,19.55
2022-08-10T06:22:10.065Z,19.39
2022-08-10T06:24:17.313Z,20.16
2022-08-10T06:26:21.797Z,20.24
2022-08-10T06:28:26.699Z,20.15
2022-08-10T06:30:30.792Z,20.22
2022-08-10T06:32:33.833Z,20.36
2022-08-10T06:34:41.062Z,20.07
2022-08-10T06:36:45.394Z,20.38
2022-08-10T06:38:49.579Z,20.49
2022-08-10T06:40:57.962Z,20.06
2022-08-10T06:43:02.390Z,20.86
2022-08-10T06:45:10.218Z,20.87
2022-08-10T06:47:14.610Z,20.94
2022-08-10T06:49:26.179Z,20.92
2022-08-10T06:51:33.155Z,21.10
2022-08-10T06:53:53.847Z,19.77
2022-08-10T06:56:03.786Z,21.24
2022-08-10T06:58:07.928Z,21.11
2022-08-10T07:00:20.256Z,21.55
2022-08-10T07:02:30.891Z,21.63
2022-08-10T07:04:38.062Z,21.61
2022-08-10T07:06:47.500Z,21.71
2022-08-10T07:08:52.988Z,21.90
2022-08-10T07:10:56.673Z,22.04
2022-08-10T07:13:02.037Z,22.01
2022-08-10T07:15:06.141Z,22.06
2022-08-10T07:17:15.203Z,21.94
2022-08-10T07:19:19.136Z,22.27
2022-08-10T07:21:23.743Z,22.30
2022-08-10T07:23:58.339Z,22.34
2022-08-10T07:25:54.702Z,22.21
2022-08-10T07:28:01.942Z,21.22
2022-08-10T07:30:05.991Z,22.43
2022-08-10T07:32:10.613Z,22.45
2022-08-10T07:34:21.804Z,22.54
2022-08-10T07:36:34.007Z,22.71
2022-08-10T07:38:39.599Z,22.81
2022-08-10T07:40:44.040Z,22.27
2022-08-10T07:42:50.152Z,22.87
2022-08-10T07:44:53.296Z,23.01
2022-08-10T07:46:59.013Z,23.09
2022-08-10T07:49:15.245Z,23.15
2022-08-10T07:51:24.635Z,23.18
2022-08-10T07:53:29.675Z,23.16
2022-08-10T07:56:02.098Z,23.21
2022-08-10T07:58:01.035Z,23.38
2022-08-10T08:00:06.844Z,22.08
2022-08-10T08:02:21.820Z,23.39
2022-08-10T08:04:26.552Z,23.47
2022-08-10T08:06:32.555Z,23.26
2022-08-10T08:08:39.015Z,23.63
2022-08-10T08:10:43.911Z,23.67
2022-08-10T08:12:47.360Z,23.89
2022-08-10T08:14:52.005Z,23.64
2022-08-10T08:16:56.341Z,23.98
2022-08-10T08:19:26.526Z,24.04
2022-08-10T08:24:09.204Z,24.13
2022-08-10T08:24:30.228Z,23.95
2022-08-10T08:26:15.896Z,24.18
2022-08-10T08:28:19.711Z,24.40
2022-08-10T08:30:27.805Z,24.29
2022-08-10T08:32:34.392Z,24.48
2022-08-10T08:34:40.462Z,24.57
2022-08-10T08:36:44.067Z,24.42
2022-08-10T08:38:48.355Z,24.81
2022-08-10T08:40:58.977Z,24.98
2022-08-10T08:43:34.740Z,24.95
2022-08-10T08:46:01.037Z,24.23
2022-08-10T08:48:46.652Z,25.02
2022-08-10T08:51:08.489Z,25.29
2022-08-10T08:54:01.095Z,25.38
2022-08-10T08:56:05.987Z,25.47
2022-08-10T08:58:27.481Z,25.55
2022-08-10T09:00:38.344Z,25.60
2022-08-10T09:02:55.949Z,25.71
2022-08-10T09:05:17.063Z,25.67
2022-08-10T09:08:00.126Z,25.85
2022-08-10T09:10:15.038Z,25.86
2022-08-10T09:12:38.650Z,25.39
2022-08-10T09:14:50.224Z,26.22
2022-08-10T09:17:00.697Z,26.30
2022-08-10T09:19:11.445Z,26.46
2022-08-10T09:21:55.066Z,26.58
2022-08-10T09:24:11.941Z,26.23
2022-08-10T09:26:21.149Z,26.85
2022-08-10T09:28:27.159Z,26.95
2022-08-10T09:30:38.186Z,26.45
2022-08-10T09:36:17.347Z,27.11
2022-08-10T09:36:26.378Z,27.00
2022-08-10T09:38:02.283Z,26.75
2022-08-10T09:40:58.878Z,27.27
2022-08-10T09:43:01.987Z,27.34
2022-08-10T09:45:15.896Z,27.47
2022-08-10T09:47:58.626Z,27.90
2022-08-10T09:50:08.241Z,27.89
2022-08-10T09:52:22.779Z,27.77
2022-08-10T09:54:37.198Z,27.98
2022-08-10T09:56:50.642Z,28.13
2022-08-10T09:59:29.276Z,28.24
2022-08-10T10:02:00.499Z,27.86
2022-08-10T10:04:06.592Z,27.91
2022-08-10T10:06:16.867Z,27.21
2022-08-10T10:08:27.511Z,27.91
2022-08-10T10:10:37.058Z,28.15
2022-08-10T10:12:56.081Z,28.28
2022-08-10T10:15:24.779Z,28.38
2022-08-10T10:17:42.226Z,28.82
2022-08-10T10:19:56.480Z,28.79
2022-08-10T10:22:14.025Z,28.93
2022-08-10T10:24:25.394Z,29.01
2022-08-10T10:26:39.087Z,28.84
2022-08-10T10:29:24.671Z,29.00
2022-08-10T10:31:24.268Z,28.68
2022-08-10T10:33:37.336Z,28.86
2022-08-10T10:35:45.254Z,28.25
2022-08-10T10:38:10.657Z,28.87
2022-08-10T10:40:15.513Z,29.27
2022-08-10T10:42:44.935Z,29.35
2022-08-10T10:44:57.073Z,29.63
2022-08-10T10:47:18.784Z,29.25
2022-08-10T10:49:34.261Z,29.67
2022-08-10T10:51:44.372Z,29.71
2022-08-10T10:54:00.100Z,29.68
2022-08-10T10:56:14.794Z,29.64
2022-08-10T10:58:28.191Z,29.70
2022-08-10T11:00:38.039Z,29.56
2022-08-10T11:02:54.945Z,29.77
2022-08-10T11:05:06.191Z,29.79
2022-08-10T11:07:22.875Z,29.42
2022-08-10T11:10:04.935Z,29.94
2022-08-10T11:12:21.462Z,30.06
2022-08-10T11:14:34.106Z,30.27
2022-08-10T11:16:43.386Z,29.71
2022-08-10T11:19:00.013Z,30.48
2022-08-10T11:21:13.723Z,30.73
2022-08-10T11:23:23.297Z,30.38
2022-08-10T11:25:31.469Z,31.07
2022-08-10T11:27:43.405Z,31.01
2022-08-10T11:29:59.020Z,31.04
2022-08-10T11:32:05.834Z,31.39
2022-08-10T11:34:48.296Z,31.70
2022-08-10T11:36:43.896Z,32.04
2022-08-10T11:39:13.451Z,32.09
2022-08-10T11:42:12.044Z,31.97
2022-08-10T11:44:02.357Z,32.04
2022-08-10T11:46:27.651Z,32.23
2022-08-10T11:48:52.897Z,32.17
2022-08-10T11:51:01.415Z,32.23
2022-08-10T11:53:14.611Z,32.25
2022-08-10T11:55:20.891Z,32.31
2022-08-10T11:57:53.095Z,32.18
2022-08-10T11:59:58.632Z,32.22
2022-08-10T12:02:03.081Z,32.44
2022-08-10T12:04:11.867Z,32.75
2022-08-10T12:06:39.299Z,32.79
2022-08-10T12:10:07.642Z,32.79
2022-08-10T12:11:12.011Z,32.21
2022-08-10T12:13:26.390Z,33.02
2022-08-10T12:15:35.659Z,32.31
2022-08-10T12:17:43.936Z,32.65
2022-08-10T12:20:01.496Z,32.57
2022-08-10T12:22:08.405Z,32.33
2022-08-10T12:24:19.751Z,32.21
2022-08-10T12:26:26.736Z,32.50
2022-08-10T12:28:50.295Z,32.67
2022-08-10T12:30:58.830Z,33.23
2022-08-10T12:33:04.106Z,33.55
2022-08-10T12:35:21.730Z,33.73
2022-08-10T12:37:32.302Z,33.38
2022-08-10T12:39:44.521Z,33.09
2022-08-10T12:41:57.777Z,33.19
2022-08-10T12:44:09.029Z,33.46
2022-08-10T12:46:19.625Z,33.45
2022-08-10T12:48:31.171Z,33.48
2022-08-10T12:50:41.796Z,33.75
2022-08-10T12:52:53.368Z,34.11
2022-08-10T12:54:59.263Z,33.90
2022-08-10T12:57:06.660Z,33.76
2022-08-10T12:59:14.266Z,34.13
2022-08-10T13:01:18.706Z,34.28
2022-08-10T13:04:20.507Z,34.23
2022-08-10T13:06:02.687Z,33.70
2022-08-10T13:08:28.160Z,34.02
2022-08-10T13:10:31.260Z,33.82
2022-08-10T13:12:40.484Z,34.41
2022-08-10T13:14:50.821Z,34.21
2022-08-10T13:16:58.411Z,34.41
2022-08-10T13:19:04.233Z,34.34
2022-08-10T13:21:19.713Z,34.23
2022-08-10T13:23:29.196Z,34.21
2022-08-10T13:25:38.831Z,34.24
2022-08-10T13:28:00.763Z,34.88
2022-08-10T13:30:10.286Z,34.79
2022-08-10T13:32:13.951Z,34.89
2022-08-10T13:34:41.784Z,35.59
2022-08-10T13:36:44.692Z,35.53
2022-08-10T13:38:49.852Z,35.23
2022-08-10T13:40:54.067Z,34.69
2022-08-10T13:42:59.677Z,34.15
2022-08-10T13:45:10.158Z,33.66
2022-08-10T13:47:14.990Z,34.03
2022-08-10T13:49:20.260Z,33.92
2022-08-10T13:51:53.872Z,33.96
2022-08-10T13:53:49.409Z,34.65
2022-08-10T13:55:56.879Z,34.97
2022-08-10T13:58:03.852Z,35.00
2022-08-10T14:00:34.326Z,34.71
2022-08-10T14:02:38.876Z,34.09
2022-08-10T14:04:45.506Z,34.66
2022-08-10T14:06:55.377Z,34.49
2022-08-10T14:09:02.231Z,34.87
2022-08-10T14:11:12.844Z,35.23
2022-08-10T14:13:18.251Z,35.59
2022-08-10T14:15:29.955Z,35.60
2022-08-10T14:17:34.517Z,35.84
2022-08-10T14:19:43.525Z,35.40
2022-08-10T14:21:47.501Z,34.90
2022-08-10T14:23:53.754Z,35.05
2022-08-10T14:26:04.112Z,34.93
2022-08-10T14:28:09.750Z,35.12
2022-08-10T14:30:16.699Z,35.34
2022-08-10T14:32:25.004Z,35.61
2022-08-10T14:36:04.973Z,35.58
2022-08-10T14:36:59.053Z,34.56
2022-08-10T14:39:04.357Z,35.25
2022-08-10T14:42:02.626Z,35.61
2022-08-10T14:43:41.999Z,36.28
2022-08-10T14:45:48.717Z,36.13
2022-08-10T14:48:00.838Z,35.18
2022-08-10T14:50:06.051Z,34.87
2022-08-10T14:52:10.236Z,35.64
2022-08-10T14:54:17.493Z,35.62
2022-08-10T14:56:27.116Z,35.89
2022-08-10T14:58:38.484Z,35.63
2022-08-10T15:00:43.703Z,36.35
2022-08-10T15:02:56.111Z,35.94
2022-08-10T15:05:03.517Z,35.10
2022-08-10T15:07:20.681Z,35.96
2022-08-10T15:09:26.398Z,36.36
2022-08-10T15:12:15.856Z,35.93
2022-08-10T15:14:29.396Z,36.09
2022-08-10T15:16:20.673Z,36.50
2022-08-10T15:18:26.412Z,36.33
2022-08-10T15:20:33.311Z,35.89
2022-08-10T15:22:38.917Z,35.94
2022-08-10T15:25:05.035Z,36.24
2022-08-10T15:27:10.600Z,36.66
2022-08-10T15:29:23.920Z,36.95
2022-08-10T15:31:33.011Z,37.07
2022-08-10T15:34:04.429Z,35.69
2022-08-10T15:36:29.785Z,36.38
2022-08-10T15:38:35.317Z,36.93
2022-08-10T15:40:50.486Z,37.09
2022-08-10T15:42:58.395Z,37.18
2022-08-10T15:45:01.607Z,37.12
2022-08-10T15:47:08.431Z,37.30
2022-08-10T15:49:20.937Z,37.32
2022-08-10T15:51:53.808Z,36.40
2022-08-10T15:54:01.976Z,35.31
2022-08-10T15:56:12.749Z,36.47
2022-08-10T15:58:20.349Z,36.93
2022-08-10T16:01:00.998Z,37.22
2022-08-10T16:03:13.098Z,37.39
2022-08-10T16:05:19.628Z,37.09
2022-08-10T16:07:49.342Z,37.09
2022-08-10T16:10:26.832Z,36.63
2022-08-10T16:12:29.239Z,37.08
2022-08-10T16:14:37.003Z,37.39
2022-08-10T16:16:40.931Z,37.49
2022-08-10T16:18:45.792Z,37.30
2022-08-10T16:20:54.818Z,37.49
2022-08-10T16:23:02.312Z,37.72
2022-08-10T16:25:15.049Z,37.85
2022-08-10T16:27:25.082Z,37.61
2022-08-10T16:29:28.962Z,36.91
2022-08-10T16:31:34.080Z,38.02
2022-08-10T16:33:54.048Z,37.82
2022-08-10T16:36:02.503Z,38.33
2022-08-10T16:38:08.605Z,38.21
2022-08-10T16:40:13.497Z,37.95
2022-08-10T16:42:20.191Z,38.38
2022-08-10T16:44:30.021Z,37.45
2022-08-10T16:46:34.993Z,37.74
2022-08-10T16:48:50.290Z,37.64
2022-08-10T16:50:57.998Z,37.53
2022-08-10T16:53:03.276Z,37.48
2022-08-10T16:55:24.762Z,37.88
2022-08-10T16:57:39.396Z,36.84
2022-08-10T16:59:43.955Z,38.04
2022-08-10T17:01:53.581Z,38.69
2022-08-10T17:04:07.811Z,37.79
2022-08-10T17:06:18.562Z,38.06
2022-08-10T17:08:23.680Z,38.12
2022-08-10T17:10:32.155Z,37.66
2022-08-10T17:12:37.937Z,38.47
2022-08-10T17:14:43.298Z,37.76
2022-08-10T17:16:53.872Z,36.88
2022-08-10T17:18:58.384Z,38.02
2022-08-10T17:21:06.644Z,37.94
2022-08-10T17:23:14.406Z,38.39
2022-08-10T17:25:20.381Z,38.41
2022-08-10T17:28:04.168Z,38.19
2022-08-10T17:30:04.846Z,37.83
2022-08-10T17:32:18.844Z,37.82
2022-08-10T17:34:29.166Z,37.66
2022-08-10T17:36:36.618Z,37.57
2022-08-10T17:38:39.818Z,37.88
2022-08-10T17:40:47.491Z,37.47
2022-08-10T17:42:53.246Z,37.56
2022-08-10T17:44:57.829Z,37.70
2022-08-10T17:47:10.885Z,36.97
2022-08-10T17:49:16.892Z,37.16
2022-08-10T17:51:20.141Z,36.97
2022-08-10T17:53:28.658Z,36.67
2022-08-10T17:55:36.474Z,35.26
2022-08-10T17:57:41.230Z,35.88
2022-08-10T17:59:47.450Z,35.66
2022-08-10T18:01:58.335Z,35.72
2022-08-10T18:04:04.715Z,34.78
2022-08-10T18:06:13.484Z,35.18
2022-08-10T18:08:19.708Z,34.55
2022-08-10T18:10:27.136Z,33.82
2022-08-10T18:12:38.223Z,32.70
2022-08-10T18:14:46.212Z,32.05
2022-08-10T18:16:54.252Z,31.52
2022-08-10T18:19:01.002Z,31.00
2022-08-10T18:21:08.809Z,30.60
2022-08-10T18:23:12.699Z,30.24
2022-08-10T18:25:21.691Z,30.10
2022-08-10T18:28:01.223Z,29.86
2022-08-10T18:29:54.443Z,29.66
2022-08-10T18:32:04.797Z,29.42
2022-08-10T18:34:12.898Z,29.14
2022-08-10T18:36:18.613Z,28.91
2022-08-10T18:38:23.035Z,28.63
2022-08-10T18:40:36.046Z,28.47
2022-08-10T18:42:47.257Z,28.35
2022-08-10T18:44:55.982Z,25.64
2022-08-10T18:47:03.878Z,27.43
2022-08-10T18:49:10.289Z,27.86
2022-08-10T18:51:25.018Z,27.58
2022-08-10T18:53:34.630Z,27.46
2022-08-10T18:56:08.523Z,26.25
2022-08-10T18:58:43.776Z,26.34
2022-08-10T19:01:06.703Z,26.18
2022-08-10T19:03:26.611Z,26.45
2022-08-10T19:05:48.459Z,26.52
2022-08-10T19:08:31.151Z,26.49
2022-08-10T19:10:40.883Z,25.84
2022-08-10T19:12:51.700Z,26.09
2022-08-10T19:15:06.924Z,25.55
2022-08-10T19:17:24.642Z,25.32
2022-08-10T19:19:36.662Z,25.11
2022-08-10T19:21:45.955Z,24.94
2022-08-10T19:24:00.687Z,24.82
2022-08-10T19:26:43.074Z,25.04
2022-08-10T19:28:47.260Z,25.09
2022-08-10T19:30:54.812Z,25.06
2022-08-10T19:33:10.439Z,24.94
2022-08-10T19:35:25.670Z,25.12
2022-08-10T19:37:36.415Z,25.37
2022-08-10T19:39:51.490Z,25.28
2022-08-10T19:41:59.835Z,25.35
2022-08-10T19:44:23.287Z,25.55
2022-08-10T19:46:36.963Z,25.53
2022-08-10T19:48:48.722Z,25.56
2022-08-10T19:50:57.079Z,25.47
2022-08-10T19:53:10.917Z,25.53
2022-08-10T19:55:22.417Z,25.43
2022-08-10T19:57:34.400Z,25.06
2022-08-10T20:00:17.316Z,25.37
2022-08-10T20:02:22.872Z,24.94
2022-08-10T20:04:32.277Z,25.05
2022-08-10T20:06:43.498Z,24.96
2022-08-10T20:08:56.553Z,24.92
2022-08-10T20:11:05.734Z,24.65
2022-08-10T20:13:15.784Z,25.10
2022-08-10T20:15:30.623Z,25.16
2022-08-10T20:17:55.547Z,25.19
2022-08-10T20:20:06.484Z,25.22
2022-08-10T20:22:11.270Z,25.20
2022-08-10T20:24:23.899Z,25.22
2022-08-10T20:26:30.343Z,25.14
2022-08-10T20:28:41.048Z,25.06
2022-08-10T20:30:47.958Z,25.12
2022-08-10T20:32:57.692Z,25.10
2022-08-10T20:35:07.689Z,24.85
2022-08-10T20:37:41.111Z,24.02
2022-08-10T20:39:49.685Z,24.93
2022-08-10T20:42:07.721Z,24.89
2022-08-10T20:44:19.797Z,24.76
2022-08-10T20:46:29.308Z,24.82
2022-08-10T20:48:39.204Z,24.35
2022-08-10T20:50:47.180Z,24.28
2022-08-10T20:52:52.734Z,24.12
2022-08-10T20:55:01.559Z,24.79
2022-08-10T20:57:56.645Z,24.69
2022-08-10T21:00:07.717Z,23.93
2022-08-10T21:02:31.821Z,23.94
2022-08-10T21:04:48.428Z,24.39
2022-08-10T21:07:22.155Z,24.19
2022-08-10T21:09:53.375Z,24.52
2022-08-10T21:12:16.565Z,24.55
2022-08-10T21:14:33.503Z,24.59
2022-08-10T21:16:47.302Z,24.41
2022-08-10T21:19:03.943Z,24.44
2022-08-10T21:21:37.740Z,24.44
2022-08-10T21:23:52.012Z,24.44
2022-08-10T21:26:08.447Z,23.87
2022-08-10T21:28:51.256Z,24.31
2022-08-10T21:31:22.128Z,24.12
2022-08-10T21:33:34.733Z,24.02
2022-08-10T21:35:43.349Z,23.93
2022-08-10T21:37:58.741Z,23.97
2022-08-10T21:40:35.087Z,23.29
2022-08-10T21:43:11.087Z,23.23
2022-08-10T21:45:58.728Z,23.43
2022-08-10T21:48:30.415Z,23.60
2022-08-10T21:50:57.949Z,23.70
2022-08-10T21:53:43.555Z,23.94
2022-08-10T21:56:19.640Z,24.04
2022-08-10T21:58:46.189Z,24.08
2022-08-10T22:01:15.204Z,24.13
2022-08-10T22:03:39.490Z,24.08
2022-08-10T22:06:18.298Z,23.98
2022-08-10T22:08:44.406Z,23.97
2022-08-10T22:11:08.624Z,23.93
2022-08-10T22:13:35.047Z,23.98
2022-08-10T22:16:09.743Z,24.00
2022-08-10T22:18:35.937Z,23.97
2022-08-10T22:21:02.085Z,22.93
2022-08-10T22:23:53.537Z,23.86
2022-08-10T22:26:25.396Z,23.93
2022-08-10T22:28:48.663Z,23.89
2022-08-10T22:31:31.683Z,23.87
2022-08-10T22:34:08.653Z,23.83
2022-08-10T22:37:05.746Z,23.76
2022-08-10T22:40:10.802Z,23.72
2022-08-10T22:42:29.228Z,23.58
2022-08-10T22:45:13.664Z,23.61
2022-08-10T22:47:38.608Z,23.57
2022-08-10T22:49:41.968Z,23.46
2022-08-10T22:51:53.108Z,23.44
2022-08-10T22:54:30.413Z,23.44
2022-08-10T22:57:10.516Z,23.49
2022-08-10T22:59:15.224Z,23.11
2022-08-10T23:01:40.716Z,23.09
2022-08-10T23:03:49.812Z,23.19
2022-08-10T23:05:59.829Z,22.81
2022-08-10T23:08:09.370Z,22.85
2022-08-10T23:10:15.378Z,20.19
2022-08-10T23:12:24.314Z,22.09
2022-08-10T23:14:35.282Z,22.67
2022-08-10T23:17:01.431Z,22.66
2022-08-10T23:19:10.061Z,22.82
2022-08-10T23:21:15.114Z,22.10
2022-08-10T23:23:24.386Z,22.96
2022-08-10T23:25:32.887Z,22.98
2022-08-10T23:27:40.362Z,22.78
2022-08-10T23:30:03.712Z,22.50
2022-08-10T23:32:13.067Z,22.45
2022-08-10T23:34:20.924Z,22.73
2022-08-10T23:36:33.385Z,22.72
2022-08-10T23:38:39.861Z,22.82
2022-08-10T23:40:46.160Z,22.85
2022-08-10T23:42:52.391Z,22.77
2022-08-10T23:44:59.316Z,22.73
2022-08-10T23:47:05.075Z,22.20
2022-08-10T23:49:11.360Z,21.31
2022-08-10T23:51:17.269Z,21.85
2022-08-10T23:53:27.537Z,22.21
2022-08-10T23:55:33.906Z,22.05
2022-08-10T23:57:55.975Z,22.07
